createdAt,value
2018-01-23T00:01:21.883Z,22.90
2018-01-23T00:03:22.884Z,21.77
2018-01-23T00:05:23.927Z,22.90
2018-01-23T00:07:25.087Z,22.20
2018-01-23T00:09:26.092Z,21.90
2018-01-23T00:11:27.167Z,23.43
2018-01-23T00:13:28.135Z,22.30
2018-01-23T00:15:29.135Z,21.07
2018-01-23T00:17:30.092Z,20.47
2018-01-23T00:19:31.086Z,21.67
2018-01-23T00:21:32.030Z,23.13
2018-01-23T00:23:33.101Z,24.13
2018-01-23T00:25:34.796Z,24.90
2018-01-23T00:27:35.809Z,26.00
2018-01-23T00:29:36.750Z,21.17
2018-01-23T00:31:37.699Z,26.50
2018-01-23T00:33:38.682Z,25.97
2018-01-23T00:35:39.698Z,24.97
2018-01-23T00:37:40.687Z,27.00
2018-01-23T00:39:41.711Z,24.47
2018-01-23T00:41:42.729Z,24.80
2018-01-23T00:43:44.463Z,25.13
2018-01-23T00:45:45.486Z,24.80
2018-01-23T00:47:46.465Z,24.07
2018-01-23T00:49:47.427Z,24.10
2018-01-23T00:51:48.376Z,24.10
2018-01-23T00:53:49.390Z,22.27
2018-01-23T00:55:50.338Z,25.67
2018-01-23T00:57:51.310Z,22.17
2018-01-23T00:59:53.136Z,24.90
2018-01-23T01:01:54.118Z,22.07
2018-01-23T01:03:55.076Z,22.27
2018-01-23T01:05:56.815Z,23.93
2018-01-23T01:07:58.251Z,23.07
2018-01-23T01:09:59.237Z,21.53
2018-01-23T01:12:00.304Z,23.33
2018-01-23T01:14:01.272Z,22.73
2018-01-23T01:16:02.287Z,23.07
2018-01-23T01:18:03.272Z,25.67
2018-01-23T01:20:04.341Z,24.70
2018-01-23T01:22:05.306Z,25.53
2018-01-23T01:24:06.351Z,24.33
2018-01-23T01:26:07.316Z,24.53
2018-01-23T01:28:08.264Z,22.70
2018-01-23T01:30:09.204Z,27.90
2018-01-23T01:32:10.235Z,23.67
2018-01-23T01:34:11.209Z,26.07
2018-01-23T01:36:12.277Z,24.40
2018-01-23T01:38:13.466Z,26.97
2018-01-23T01:40:15.242Z,24.87
2018-01-23T01:42:16.958Z,23.90
2018-01-23T01:44:17.915Z,24.90
2018-01-23T01:46:18.922Z,25.43
2018-01-23T01:48:20.651Z,23.80
2018-01-23T01:50:21.732Z,27.73
2018-01-23T01:52:22.768Z,24.77
2018-01-23T01:54:23.747Z,26.33
2018-01-23T01:56:24.790Z,24.10
2018-01-23T01:58:25.828Z,24.23
2018-01-23T02:00:26.875Z,22.67
2018-01-23T02:02:27.835Z,22.67
2018-01-23T02:04:28.878Z,21.83
2018-01-23T02:06:30.583Z,24.53
2018-01-23T02:08:31.566Z,24.67
2018-01-23T02:10:32.612Z,22.50
2018-01-23T02:12:33.563Z,24.33
2018-01-23T02:14:34.563Z,20.63
2018-01-23T02:16:35.526Z,24.20
2018-01-23T02:18:37.409Z,21.20
2018-01-23T02:20:39.150Z,22.90
2018-01-23T02:22:40.119Z,22.47
2018-01-23T02:24:41.080Z,19.50
2018-01-23T02:26:42.079Z,20.43
2018-01-23T02:28:43.043Z,23.30
2018-01-23T02:30:44.006Z,21.17
2018-01-23T02:32:45.032Z,22.03
2018-01-23T02:34:45.993Z,20.27
2018-01-23T02:36:47.069Z,20.03
2018-01-23T02:38:48.120Z,20.57
2018-01-23T02:40:49.147Z,21.37
2018-01-23T02:42:50.891Z,20.47
2018-01-23T02:44:51.969Z,19.53
2018-01-23T02:46:53.025Z,20.27
2018-01-23T02:48:54.003Z,21.50
2018-01-23T02:50:55.028Z,20.37
2018-01-23T02:52:56.102Z,20.37
2018-01-23T02:54:57.142Z,22.90
2018-01-23T02:56:58.085Z,22.07
2018-01-23T02:58:59.123Z,20.87
2018-01-23T03:01:00.144Z,20.80
2018-01-23T03:03:01.949Z,20.53
2018-01-23T03:05:02.913Z,20.60
2018-01-23T03:07:03.873Z,21.70
2018-01-23T03:09:04.900Z,18.83
2018-01-23T03:11:06.594Z,20.70
2018-01-23T03:13:07.596Z,19.00
2018-01-23T03:15:08.615Z,20.17
2018-01-23T03:17:09.563Z,18.50
2018-01-23T03:19:10.547Z,18.20
2018-01-23T03:21:11.548Z,19.97
2018-01-23T03:23:13.248Z,19.50
2018-01-23T03:25:14.313Z,20.03
2018-01-23T03:27:15.402Z,21.10
2018-01-23T03:29:16.418Z,21.57
2018-01-23T03:31:17.435Z,20.70
2018-01-23T03:33:19.284Z,20.10
2018-01-23T03:35:20.241Z,22.17
2018-01-23T03:37:21.184Z,21.87
2018-01-23T03:39:22.181Z,20.80
2018-01-23T03:41:23.194Z,22.90
2018-01-23T03:43:24.240Z,21.10
2018-01-23T03:45:25.247Z,21.23
2018-01-23T03:47:26.315Z,22.20
2018-01-23T03:49:27.324Z,20.83
2018-01-23T03:51:28.285Z,22.43
2018-01-23T03:53:29.349Z,21.70
2018-01-23T03:55:30.494Z,21.50
2018-01-23T03:57:31.495Z,21.90
2018-01-23T03:59:32.439Z,21.20
2018-01-23T04:01:33.524Z,20.70
2018-01-23T04:03:35.472Z,22.57
2018-01-23T04:05:36.533Z,22.43
2018-01-23T04:07:37.534Z,20.10
2018-01-23T04:09:38.525Z,22.07
2018-01-23T04:11:39.499Z,21.47
2018-01-23T04:13:40.532Z,22.17
2018-01-23T04:15:41.489Z,19.40
2018-01-23T04:17:42.508Z,20.17
2018-01-23T04:19:43.670Z,19.77
2018-01-23T04:21:44.667Z,21.00
2018-01-23T04:23:45.640Z,21.00
2018-01-23T04:25:46.707Z,22.10
2018-01-23T04:27:47.909Z,21.77
2018-01-23T04:29:48.859Z,20.10
2018-01-23T04:31:50.572Z,20.10
2018-01-23T04:33:51.646Z,21.97
2018-01-23T04:35:52.813Z,19.53
2018-01-23T04:37:53.815Z,22.17
2018-01-23T04:39:54.760Z,22.37
2018-01-23T04:41:55.840Z,19.90
2018-01-23T04:43:56.953Z,21.93
2018-01-23T04:45:57.895Z,21.33
2018-01-23T04:47:58.852Z,20.73
2018-01-23T04:49:59.882Z,20.43
2018-01-23T04:52:00.912Z,18.50
2018-01-23T04:54:01.936Z,21.03
2018-01-23T04:56:02.911Z,19.43
2018-01-23T04:58:03.969Z,19.30
2018-01-23T05:00:05.736Z,20.43
2018-01-23T05:02:06.698Z,17.73
2018-01-23T05:04:07.737Z,18.50
2018-01-23T05:06:08.692Z,18.10
2018-01-23T05:08:09.634Z,19.13
2018-01-23T05:10:10.673Z,18.10
2018-01-23T05:12:11.692Z,20.73
2018-01-23T05:14:13.388Z,19.47
2018-01-23T05:16:14.447Z,16.50
2018-01-23T05:18:15.425Z,18.27
2018-01-23T05:20:16.390Z,17.70
2018-01-23T05:22:17.392Z,18.93
2018-01-23T05:24:19.083Z,18.57
2018-01-23T05:26:20.051Z,17.13
2018-01-23T05:28:21.103Z,16.97
2018-01-23T05:30:22.070Z,20.07
2018-01-23T05:32:23.019Z,20.97
2018-01-23T05:34:24.039Z,19.07
2018-01-23T05:36:25.223Z,19.40
2018-01-23T05:38:26.251Z,20.27
2018-01-23T05:40:27.403Z,20.03
2018-01-23T05:42:28.395Z,21.07
2018-01-23T05:44:29.463Z,21.70
2018-01-23T05:46:30.494Z,22.07
2018-01-23T05:48:31.522Z,22.30
2018-01-23T05:50:32.516Z,22.83
2018-01-23T05:52:33.485Z,22.23
2018-01-23T05:54:34.475Z,22.73
2018-01-23T05:56:35.434Z,22.40
2018-01-23T05:58:36.500Z,22.50
2018-01-23T06:00:37.446Z,22.40
2018-01-23T06:02:38.395Z,25.10
2018-01-23T06:04:39.352Z,23.73
2018-01-23T06:06:40.311Z,26.33
2018-01-23T06:08:42.021Z,23.53
2018-01-23T06:10:42.967Z,26.40
2018-01-23T06:12:43.906Z,27.40
2018-01-23T06:14:44.871Z,26.50
2018-01-23T06:16:45.806Z,26.97
2018-01-23T06:18:46.743Z,26.77
2018-01-23T06:20:47.696Z,27.37
2018-01-23T06:22:48.648Z,28.17
2018-01-23T06:24:49.612Z,28.43
2018-01-23T06:26:50.548Z,28.47
2018-01-23T06:28:51.508Z,30.27
2018-01-23T06:30:52.451Z,26.60
2018-01-23T06:32:54.151Z,29.87
2018-01-23T06:34:55.104Z,28.50
2018-01-23T06:36:56.779Z,29.67
2018-01-23T06:38:57.765Z,30.10
2018-01-23T06:40:58.718Z,29.70
2018-01-23T06:42:59.744Z,28.40
2018-01-23T06:45:00.700Z,29.87
2018-01-23T06:47:01.659Z,31.43
2018-01-23T06:49:02.596Z,32.60
2018-01-23T06:51:04.274Z,32.37
2018-01-23T06:53:05.228Z,32.63
2018-01-23T06:55:06.189Z,29.40
2018-01-23T06:57:07.142Z,33.80
2018-01-23T06:59:08.105Z,32.40
2018-01-23T07:01:09.098Z,34.13
2018-01-23T07:03:10.035Z,30.60
2018-01-23T07:05:11.033Z,31.13
2018-01-23T07:07:12.025Z,30.40
2018-01-23T07:09:12.985Z,33.37
2018-01-23T07:11:14.856Z,32.63
2018-01-23T07:13:16.532Z,30.77
2018-01-23T07:15:18.776Z,31.47
2018-01-23T07:17:19.841Z,31.73
2018-01-23T07:19:20.883Z,32.47
2018-01-23T07:21:21.831Z,31.63
2018-01-23T07:23:22.853Z,31.43
2018-01-23T07:25:23.868Z,30.33
2018-01-23T07:27:24.867Z,31.20
2018-01-23T07:29:25.827Z,32.97
2018-01-23T07:31:26.787Z,30.83
2018-01-23T07:33:27.790Z,31.10
2018-01-23T07:35:28.776Z,33.37
2018-01-23T07:37:29.716Z,31.77
2018-01-23T07:39:30.669Z,33.10
2018-01-23T07:41:31.614Z,32.47
2018-01-23T07:43:32.586Z,32.50
2018-01-23T07:45:33.586Z,34.60
2018-01-23T07:47:34.540Z,34.03
2018-01-23T07:49:35.553Z,34.20
2018-01-23T07:51:36.495Z,34.70
2018-01-23T07:53:37.503Z,34.23
2018-01-23T07:55:38.519Z,33.77
2018-01-23T07:57:39.534Z,32.27
2018-01-23T07:59:40.492Z,32.53
2018-01-23T08:01:41.456Z,32.20
2018-01-23T08:03:42.399Z,33.20
2018-01-23T08:05:43.351Z,34.60
2018-01-23T08:07:44.310Z,34.73
2018-01-23T08:09:45.272Z,35.80
2018-01-23T08:11:46.235Z,36.00
2018-01-23T08:13:47.167Z,32.80
2018-01-23T08:15:48.134Z,36.63
2018-01-23T08:17:49.080Z,36.00
2018-01-23T08:19:50.031Z,35.67
2018-01-23T08:21:50.996Z,36.00
2018-01-23T08:23:51.968Z,37.37
2018-01-23T08:25:52.931Z,34.07
2018-01-23T08:27:53.871Z,35.97
2018-01-23T08:29:54.818Z,34.87
2018-01-23T08:31:55.796Z,34.37
2018-01-23T08:33:56.743Z,34.10
2018-01-23T08:35:57.692Z,35.13
2018-01-23T08:37:58.668Z,33.70
2018-01-23T08:39:59.612Z,35.20
2018-01-23T08:42:00.590Z,37.13
2018-01-23T08:44:01.531Z,34.67
2018-01-23T08:46:02.477Z,34.97
2018-01-23T08:48:03.448Z,33.30
2018-01-23T08:50:04.411Z,33.47
2018-01-23T08:52:05.383Z,34.77
2018-01-23T08:54:06.328Z,31.00
2018-01-23T08:56:07.308Z,33.47
2018-01-23T08:58:08.996Z,35.37
2018-01-23T09:00:09.944Z,33.77
2018-01-23T09:02:10.883Z,35.10
2018-01-23T09:04:11.807Z,31.97
2018-01-23T09:06:12.800Z,30.97
2018-01-23T09:08:14.510Z,34.43
2018-01-23T09:10:15.473Z,30.90
2018-01-23T09:12:16.488Z,31.77
2018-01-23T09:14:17.475Z,33.80
2018-01-23T09:16:18.454Z,33.97
2018-01-23T09:18:19.400Z,32.93
2018-01-23T09:20:20.379Z,30.00
2018-01-23T09:22:21.323Z,30.53
2018-01-23T09:24:22.263Z,32.07
2018-01-23T09:26:23.200Z,29.73
2018-01-23T09:28:24.145Z,31.93
2018-01-23T09:30:25.087Z,26.20
2018-01-23T09:32:26.751Z,30.10
2018-01-23T09:34:28.433Z,32.33
2018-01-23T09:36:29.427Z,31.47
2018-01-23T09:38:30.391Z,30.60
2018-01-23T09:40:31.340Z,30.97
2018-01-23T09:42:32.287Z,31.87
2018-01-23T09:44:33.270Z,30.20
2018-01-23T09:46:34.252Z,30.80
2018-01-23T09:48:35.164Z,31.83
2018-01-23T09:50:36.125Z,32.30
2018-01-23T09:52:37.064Z,28.67
2018-01-23T09:54:38.008Z,30.50
2018-01-23T09:56:38.976Z,26.57
2018-01-23T09:58:39.939Z,28.30
2018-01-23T10:00:40.904Z,27.40
2018-01-23T10:02:41.845Z,26.67
2018-01-23T10:04:42.824Z,25.73
2018-01-23T10:06:43.819Z,25.10
2018-01-23T10:08:45.498Z,24.10
2018-01-23T10:11:04.754Z,25.90
2018-01-23T10:13:05.725Z,25.43
2018-01-23T10:15:06.688Z,23.10
2018-01-23T10:17:07.623Z,24.00
2018-01-23T10:19:08.560Z,25.30
2018-01-23T10:21:09.657Z,25.33
2018-01-23T10:23:11.410Z,22.10
2018-01-23T10:25:12.415Z,22.87
2018-01-23T10:27:13.355Z,22.30
2018-01-23T10:29:14.370Z,24.70
2018-01-23T10:31:15.315Z,25.60
2018-01-23T10:33:16.292Z,27.07
2018-01-23T10:35:17.325Z,24.03
2018-01-23T10:37:18.283Z,26.10
2018-01-23T10:39:19.241Z,26.67
2018-01-23T10:41:20.195Z,24.97
2018-01-23T10:43:21.985Z,25.53
2018-01-23T10:45:23.012Z,21.97
2018-01-23T10:47:23.963Z,24.90
2018-01-23T10:49:24.945Z,23.70
2018-01-23T10:51:25.955Z,26.40
2018-01-23T10:53:26.992Z,25.50
2018-01-23T10:55:28.039Z,25.00
2018-01-23T10:57:29.033Z,25.30
2018-01-23T10:59:43.073Z,24.47
2018-01-23T11:01:44.182Z,23.50
2018-01-23T11:03:45.191Z,25.00
2018-01-23T11:05:53.118Z,23.10
2018-01-23T11:08:04.493Z,20.30
2018-01-23T11:10:06.219Z,24.17
2018-01-23T11:12:07.249Z,22.60
2018-01-23T11:16:29.834Z,19.07
2018-01-23T11:18:30.796Z,24.43
2018-01-23T11:20:32.509Z,22.57
2018-01-23T11:22:33.695Z,25.00
2018-01-23T11:24:34.661Z,24.53
2018-01-23T11:26:35.639Z,26.03
2018-01-23T11:28:36.593Z,24.77
2018-01-23T11:30:38.844Z,25.70
2018-01-23T11:32:41.462Z,22.20
2018-01-23T11:34:42.478Z,21.30
2018-01-23T11:36:43.437Z,23.80
2018-01-23T11:38:45.062Z,21.03
2018-01-23T11:40:46.859Z,22.07
2018-01-23T11:42:48.934Z,19.90
2018-01-23T11:44:50.795Z,21.97
2018-01-23T11:46:51.886Z,20.33
2018-01-23T11:48:53.297Z,21.83
2018-01-23T11:50:54.300Z,20.33
2018-01-23T11:52:55.640Z,20.03
2018-01-23T11:54:56.695Z,18.50
2018-01-23T11:56:57.818Z,19.10
2018-01-23T11:58:59.396Z,19.67
2018-01-23T12:01:00.390Z,20.47
2018-01-23T12:03:02.023Z,20.30
2018-01-23T12:05:03.007Z,22.60
2018-01-23T12:07:03.992Z,21.57
2018-01-23T12:09:05.713Z,23.53
2018-01-23T12:11:07.515Z,20.07
2018-01-23T12:13:08.517Z,21.40
2018-01-23T12:15:10.628Z,21.93
2018-01-23T12:17:11.628Z,19.40
2018-01-23T12:19:13.899Z,17.53
2018-01-23T12:21:14.928Z,19.43
2018-01-23T12:23:16.256Z,17.07
2018-01-23T12:25:17.569Z,17.17
2018-01-23T12:27:18.584Z,18.50
2018-01-23T12:29:19.779Z,17.00
2018-01-23T12:31:20.777Z,15.83
2018-01-23T12:33:22.450Z,17.80
2018-01-23T12:35:23.418Z,12.90
2018-01-23T12:37:24.427Z,14.17
2018-01-23T12:39:25.470Z,12.47
2018-01-23T12:41:26.424Z,12.30
2018-01-23T12:43:27.978Z,13.43
2018-01-23T12:45:29.779Z,14.30
2018-01-23T12:47:30.877Z,12.27
2018-01-23T12:49:33.982Z,13.17
2018-01-23T12:51:35.065Z,10.63
2018-01-23T12:53:36.009Z,11.40
2018-01-23T12:55:36.974Z,12.80
2018-01-23T12:57:39.981Z,11.80
2018-01-23T12:59:41.090Z,12.00
2018-01-23T13:01:42.109Z,11.73
2018-01-23T13:03:43.059Z,12.37
2018-01-23T13:05:44.012Z,11.73
2018-01-23T13:07:46.442Z,12.90
2018-01-23T13:09:47.468Z,12.33
2018-01-23T13:11:48.428Z,10.10
2018-01-23T13:14:08.402Z,12.40
2018-01-23T13:16:09.584Z,12.83
2018-01-23T13:18:10.576Z,13.17
2018-01-23T13:20:11.551Z,12.30
2018-01-23T13:22:16.530Z,11.90
2018-01-23T13:24:17.611Z,10.20
2018-01-23T13:26:18.591Z,12.70
2018-01-23T13:28:19.544Z,12.00
2018-01-23T13:35:20.323Z,10.83
2018-01-23T13:37:24.736Z,9.20
2018-01-23T13:39:25.685Z,9.73
2018-01-23T13:41:26.650Z,11.93
2018-01-23T13:43:27.590Z,10.90
2018-01-23T13:45:28.569Z,8.40
2018-01-23T13:47:29.697Z,10.53
2018-01-23T13:49:30.671Z,10.50
2018-01-23T13:51:31.814Z,11.20
2018-01-23T13:53:32.816Z,8.80
2018-01-23T13:55:33.858Z,9.00
2018-01-23T13:57:34.950Z,8.57
2018-01-23T13:59:35.924Z,9.37
2018-01-23T14:06:32.056Z,8.67
2018-01-23T14:08:39.634Z,7.67
2018-01-23T14:10:43.251Z,8.87
2018-01-23T14:14:53.340Z,8.27
2018-01-23T14:16:59.006Z,8.00
2018-01-23T14:18:59.971Z,9.20
2018-01-23T14:21:02.573Z,7.67
2018-01-23T14:23:03.689Z,7.37
2018-01-23T14:25:05.346Z,7.37
2018-01-23T14:29:15.015Z,7.50
2018-01-23T14:31:15.993Z,7.00
2018-01-23T14:33:20.132Z,6.90
2018-01-23T14:35:22.022Z,7.80
2018-01-23T14:37:23.148Z,7.13
2018-01-23T14:39:29.280Z,8.10
2018-01-23T14:41:30.303Z,7.30
2018-01-23T14:43:31.268Z,6.53
2018-01-23T14:45:44.297Z,7.07
2018-01-23T14:49:59.154Z,7.63
2018-01-23T14:52:00.127Z,5.90
2018-01-23T14:54:01.976Z,6.40
2018-01-23T14:56:02.920Z,6.63
2018-01-23T14:58:03.864Z,6.03
2018-01-23T15:00:04.943Z,6.13
2018-01-23T15:02:05.950Z,7.13
2018-01-23T15:04:07.656Z,6.40
2018-01-23T15:06:10.690Z,6.90
2018-01-23T15:08:12.450Z,6.60
2018-01-23T15:10:13.521Z,7.13
2018-01-23T15:12:14.502Z,5.07
2018-01-23T15:14:16.220Z,6.50
2018-01-23T15:16:17.900Z,6.47
2018-01-23T15:18:20.430Z,6.37
2018-01-23T15:20:21.421Z,5.93
2018-01-23T15:22:22.391Z,6.53
2018-01-23T15:24:23.365Z,5.93
2018-01-23T15:26:28.526Z,6.27
2018-01-23T15:28:29.747Z,5.87
2018-01-23T15:30:30.720Z,6.63
2018-01-23T15:32:31.744Z,6.10
2018-01-23T15:34:32.736Z,6.80
2018-01-23T15:36:33.729Z,6.43
2018-01-23T15:38:36.524Z,5.80
2018-01-23T15:40:42.419Z,7.10
2018-01-23T15:42:43.620Z,5.90
2018-01-23T15:52:20.509Z,6.20
2018-01-23T15:54:21.528Z,6.47
2018-01-23T15:56:22.566Z,6.43
2018-01-23T15:58:23.625Z,5.70
2018-01-23T16:00:24.809Z,6.23
2018-01-23T16:02:26.303Z,5.50
2018-01-23T16:04:28.604Z,5.20
2018-01-23T16:06:32.294Z,5.97
2018-01-23T16:11:04.596Z,4.13
2018-01-23T16:13:16.581Z,6.03
2018-01-23T16:15:17.596Z,5.90
2018-01-23T16:19:33.921Z,5.63
2018-01-23T16:21:34.960Z,5.80
2018-01-23T16:23:36.899Z,5.57
2018-01-23T16:25:47.394Z,6.27
2018-01-23T16:33:06.150Z,5.50
2018-01-23T16:35:07.949Z,5.60
2018-01-23T16:37:09.256Z,6.37
2018-01-23T16:39:10.280Z,5.70
2018-01-23T16:41:11.227Z,5.40
2018-01-23T16:45:49.839Z,4.60
2018-01-23T16:50:28.370Z,6.63
2018-01-23T16:52:29.381Z,5.57
2018-01-23T16:54:30.787Z,5.27
2018-01-23T16:59:10.957Z,5.23
2018-01-23T17:03:49.243Z,6.17
2018-01-23T17:05:50.309Z,5.93
2018-01-23T17:07:51.283Z,5.33
2018-01-23T17:09:52.333Z,4.50
2018-01-23T17:11:53.421Z,5.37
2018-01-23T17:13:54.922Z,5.37
2018-01-23T17:18:33.681Z,5.13
2018-01-23T17:23:11.747Z,5.10
2018-01-23T17:25:12.679Z,5.70
2018-01-23T17:27:22.466Z,5.10
2018-01-23T17:29:23.638Z,4.10
2018-01-23T17:31:24.628Z,4.77
2018-01-23T17:33:25.631Z,4.33
2018-01-23T17:35:26.591Z,4.70
2018-01-23T17:39:44.776Z,4.10
2018-01-23T17:41:45.866Z,5.73
2018-01-23T17:43:46.877Z,3.70
2018-01-23T17:45:47.828Z,5.37
2018-01-23T17:47:49.591Z,4.40
2018-01-23T17:49:51.349Z,5.00
2018-01-23T17:51:52.340Z,3.37
2018-01-23T17:53:53.339Z,4.57
2018-01-23T17:55:54.429Z,4.50
2018-01-23T17:57:55.404Z,4.00
2018-01-23T17:59:56.392Z,5.00
2018-01-23T18:01:57.364Z,4.57
2018-01-23T18:03:58.323Z,4.73
2018-01-23T18:05:59.288Z,5.43
2018-01-23T18:08:00.391Z,3.70
2018-01-23T18:10:01.389Z,4.60
2018-01-23T18:12:02.379Z,5.20
2018-01-23T18:14:03.363Z,5.57
2018-01-23T18:16:04.618Z,5.93
2018-01-23T18:18:06.675Z,5.20
2018-01-23T18:20:07.668Z,5.87
2018-01-23T18:22:09.405Z,5.80
2018-01-23T18:24:10.356Z,6.50
2018-01-23T18:26:11.347Z,6.53
2018-01-23T18:28:13.851Z,4.77
2018-01-23T18:30:14.878Z,5.37
2018-01-23T18:32:16.146Z,6.10
2018-01-23T18:34:18.737Z,4.43
2018-01-23T18:36:19.781Z,5.40
2018-01-23T18:38:20.750Z,5.70
2018-01-23T18:40:21.702Z,4.93
2018-01-23T18:42:22.740Z,5.20
2018-01-23T18:44:23.737Z,5.93
2018-01-23T18:46:24.675Z,5.20
2018-01-23T18:48:25.680Z,5.10
2018-01-23T18:50:26.872Z,5.20
2018-01-23T18:52:27.811Z,5.43
2018-01-23T18:54:32.051Z,7.20
2018-01-23T18:56:32.994Z,4.60
2018-01-23T18:58:34.051Z,5.57
2018-01-23T19:00:35.833Z,5.68
2018-01-23T19:02:40.568Z,5.80
2018-01-23T19:04:45.591Z,6.10
2018-01-23T19:06:47.291Z,5.57
2018-01-23T19:08:52.242Z,6.23
2018-01-23T19:10:53.280Z,5.73
2018-01-23T19:12:55.767Z,5.93
2018-01-23T19:14:56.782Z,5.67
2018-01-23T19:16:57.818Z,7.00
2018-01-23T19:19:08.968Z,6.33
2018-01-23T19:21:14.181Z,6.03
2018-01-23T19:23:25.160Z,6.47
2018-01-23T19:25:32.672Z,5.57
2018-01-23T19:27:33.681Z,5.70
2018-01-23T19:29:34.635Z,6.00
2018-01-23T19:31:35.627Z,5.87
2018-01-23T19:33:36.664Z,6.10
2018-01-23T19:35:37.600Z,5.87
2018-01-23T19:37:38.560Z,5.20
2018-01-23T19:39:40.984Z,4.80
2018-01-23T19:43:56.201Z,4.43
2018-01-23T19:45:58.045Z,5.47
2018-01-23T19:47:58.996Z,5.63
2018-01-23T19:49:59.952Z,5.57
2018-01-23T19:52:00.975Z,4.30
2018-01-23T19:54:01.943Z,6.63
2018-01-23T19:56:02.902Z,5.90
2018-01-23T19:58:03.952Z,5.03
2018-01-23T20:00:04.905Z,5.37
2018-01-23T20:02:05.882Z,5.30
2018-01-23T20:04:06.860Z,5.23
2018-01-23T20:18:38.502Z,4.67
2018-01-23T20:23:17.123Z,5.20
2018-01-23T20:25:18.819Z,4.50
2018-01-23T20:27:20.607Z,4.70
2018-01-23T20:29:25.546Z,4.90
2018-01-23T20:33:53.823Z,4.90
2018-01-23T20:35:54.804Z,4.80
2018-01-23T20:40:44.267Z,4.93
2018-01-23T20:42:45.224Z,5.40
2018-01-23T20:44:46.188Z,4.90
2018-01-23T20:46:47.168Z,6.00
2018-01-23T20:48:48.193Z,4.67
2018-01-23T20:50:53.460Z,3.90
2018-01-23T20:53:00.823Z,4.70
2018-01-23T20:55:01.794Z,5.30
2018-01-23T20:57:03.588Z,5.50
2018-01-23T20:59:04.550Z,5.70
2018-01-23T21:01:08.570Z,6.63
2018-01-23T21:03:35.649Z,4.80
2018-01-23T21:08:13.472Z,5.87
2018-01-23T21:10:14.713Z,3.93
2018-01-23T21:12:15.712Z,4.60
2018-01-23T21:16:53.822Z,4.43
2018-01-23T21:19:22.324Z,4.57
2018-01-23T21:21:23.422Z,4.40
2018-01-23T21:23:24.576Z,4.67
2018-01-23T21:25:25.654Z,4.90
2018-01-23T21:27:26.829Z,5.13
2018-01-23T21:32:08.215Z,4.77
2018-01-23T21:34:09.527Z,4.47
2018-01-23T21:36:10.550Z,5.03
2018-01-23T21:38:11.558Z,4.50
2018-01-23T21:42:21.019Z,4.67
2018-01-23T21:44:23.119Z,4.23
2018-01-23T21:46:24.238Z,5.03
2018-01-23T21:48:25.231Z,3.73
2018-01-23T21:50:26.885Z,4.20
2018-01-23T21:52:53.409Z,4.60
2018-01-23T21:54:54.526Z,4.87
2018-01-23T21:56:55.750Z,5.70
2018-01-23T21:58:57.429Z,4.37
2018-01-23T22:01:00.514Z,3.90
2018-01-23T22:03:03.513Z,4.50
2018-01-23T22:05:14.528Z,5.43
2018-01-23T22:07:15.571Z,5.50
2018-01-23T22:09:22.468Z,4.00
2018-01-23T22:11:23.497Z,4.70
2018-01-23T22:13:24.628Z,5.60
2018-01-23T22:15:25.840Z,4.80
2018-01-23T22:17:26.832Z,4.10
2018-01-23T22:19:27.794Z,4.73
2018-01-23T22:21:30.391Z,5.30
2018-01-23T22:26:04.475Z,6.37
2018-01-23T22:28:11.799Z,4.60
2018-01-23T22:35:09.930Z,6.27
2018-01-23T22:42:19.737Z,4.00
2018-01-23T22:44:25.093Z,5.00
2018-01-23T23:01:08.682Z,6.50
2018-01-23T23:08:35.132Z,6.20
2018-01-23T23:13:05.331Z,6.73
2018-01-23T23:15:06.341Z,4.83
2018-01-23T23:17:10.020Z,7.20
2018-01-23T23:19:11.868Z,6.40
2018-01-23T23:21:19.075Z,5.57
2018-01-23T23:23:20.373Z,5.93
2018-01-23T23:25:22.272Z,7.37
2018-01-23T23:27:24.280Z,6.50
2018-01-23T23:29:25.276Z,6.50
2018-01-23T23:34:10.214Z,6.80
2018-01-23T23:36:11.386Z,6.00
2018-01-23T23:41:08.473Z,6.10
2018-01-23T23:43:10.811Z,6.23
2018-01-23T23:45:16.647Z,6.50
2018-01-23T23:47:22.755Z,6.37
2018-01-23T23:51:40.992Z,4.93
2018-01-23T23:53:49.042Z,5.43
2018-01-23T23:55:50.647Z,5.17
2018-01-23T23:57:53.696Z,5.43
2018-01-23T23:59:54.750Z,4.93
